ADDS METAR Data INFO
IDs: Format: Raw Decoded Include TAF

Data at: 0215 UTC 18 Jan 2018

KBIL 180153Z 24019G24KT 10SM SCT200 03/M07 A3007 RMK AO2 PK WND 24027/0116 SLP213 T00281072
KBIL 180053Z 24019KT 10SM SCT120 BKN200 03/M07 A3009 RMK AO2 PK WND 24027/2359 SLP219 T00281067
KBIL 172353Z 23019KT 10SM SCT120 BKN240 03/M07 A3010 RMK AO2 SLP221 4/004 T00281072 10044 21011 58020
KBIL 172253Z 23016KT 10SM FEW120 BKN220 03/M06 A3012 RMK AO2 SLP229 T00331061
KBIL 172153Z 24016KT 10SM FEW120 SCT220 04/M06 A3014 RMK AO2 SLP236 T00441061
KBIL 172053Z 22013KT 10SM FEW120 SCT200 04/M06 A3016 RMK AO2 SLP244 T00391056 58027
KBIL 171953Z 21012KT 10SM SCT200 03/M07 A3020 RMK AO2 SLP257 T00331072
KBIL 171853Z 22017KT 10SM FEW110 SCT200 02/M09 A3022 RMK AO2 SLP268 T00171089
KBIL 171753Z 23015KT 10SM FEW110 BKN180 M02/M09 A3025 RMK AO2 PK WND 24026/1704 SLP283 4/004 933002 T10171094 11011 21050 50000
KBIL 171653Z 23021KT 10SM FEW110 BKN180 M03/M11 A3025 RMK AO2 PK WND 23029/1631 SLP285 T10281106
KBIL 171553Z 23020G30KT 10SM FEW110 SCT180 M04/M11 A3026 RMK AO2 PK WND 24030/1544 SLP291 T10441111
KBIL 171453Z 24020KT 10SM FEW110 M04/M11 A3025 RMK AO2 PK WND 24026/1448 SLP289 T10441111 51001
KBIL 171353Z 24021KT 10SM FEW110 M04/M11 A3025 RMK AO2 SLP283 T10391111
KBIL 171253Z 23018KT 10SM CLR M04/M11 A3025 RMK AO2 SLP283 T10391111
KBIL 171153Z 24018KT 10SM CLR M03/M11 A3025 RMK AO2 SLP280 4/004 T10331111 11022 21044 51018
KBIL 171053Z 24018KT 10SM FEW180 M03/M11 A3023 RMK AO2 SLP273 T10281111
KBIL 170953Z 23018KT 10SM FEW180 M03/M11 A3021 RMK AO2 SLP266 T10331111
KBIL 170853Z 23015KT 10SM FEW150 M04/M11 A3019 RMK AO2 SLP261 T10391111 53009
KBIL 170753Z 23017KT 10SM FEW150 M03/M11 A3017 RMK AO2 SLP256 T10331111
KBIL 170653Z 23016KT 10SM CLR M04/M11 A3018 RMK AO2 SLP262 T10391111 400061189
KBIL 170553Z 23019KT 10SM CLR M04/M11 A3016 RMK AO2 SLP261 4/004 T10391111 11006 21050 53007
KBIL 170453Z 23019KT 10SM FEW250 M04/M11 A3015 RMK AO2 SLP262 T10391111
KBIL 170353Z 23020KT 10SM CLR M05/M11 A3014 RMK AO2 SLP261 T10501111
KBIL 170253Z 21013KT 10SM CLR M04/M12 A3014 RMK AO2 SLP263 T10441117 51005
KBIL 170153Z 21013KT 10SM CLR M02/M12 A3014 RMK AO2 SLP263 T10221122
KBIL 170053Z 22013KT 10SM CLR M02/M12 A3013 RMK AO2 PK WND 24026/0008 SLP261 T10171122
KBIL 162353Z 22017KT 10SM FEW220 M01/M11 A3012 RMK AO2 SLP256 4/004 T10061111 10006 21078 55007
KBIL 162253Z 22017KT 10SM FEW200 00/M11 A3012 RMK AO2 SLP255 T00001106
KBIL 162153Z 22014KT 10SM FEW200 01/M10 A3014 RMK AO2 SLP263 T00061100
KBIL 162053Z 23019G27KT 10SM FEW200 M01/M11 A3014 RMK AO2 PK WND 22027/2045 SLP264 T10061106 56029
KBIL 161953Z 22015KT 10SM FEW200 M03/M11 A3017 RMK AO2 SLP277 T10281111
KBIL 161853Z 22013KT 10SM FEW200 M06/M12 A3021 RMK AO2 SLP296 T10561122
KBIL 161753Z 22013KT 10SM FEW200 M08/M13 A3024 RMK AO2 SLP310 4/005 933002 T10831133 11083 21178 58014
KBIL 161653Z 22014KT 10SM FEW200 M11/M15 A3026 RMK AO2 SLP320 T11111150
KBIL 161553Z 23015KT 10SM FEW200 M12/M16 A3026 RMK AO2 SLP323 T11171161
KBIL 161453Z 24010KT 10SM BCFG FEW160 M14/M17 A3028 RMK AO2 SLP335 BCFG NE-E T11441172 58020